Time,TemperatureF,DewpointF,PressureIn,WindDirection,WindDirectionDegrees,WindSpeedMPH,WindSpeedGustMPH,Humidity,HourlyPrecipIn,Conditions,Clouds,dailyrainin,SoftwareType,DateUTC
2013-02-01 00:01:00,26.5,16.0,29.66,SW,221,4.0,-999.0,65,-99.99,,,0.00,weatherlink.com 1.10,2013-02-01 05:01:00,
2013-02-01 00:16:00,26.3,14.0,29.66,WSW,254,14.0,-999.0,61,-99.99,,,0.00,weatherlink.com 1.10,2013-02-01 05:16:00,
2013-02-01 00:31:00,26.1,13.0,29.66,West,263,8.0,-999.0,57,-99.99,,,0.00,weatherlink.com 1.10,2013-02-01 05:31:00,
2013-02-01 00:46:00,25.7,12.0,29.67,SW,221,5.0,-999.0,56,-99.99,,,0.00,weatherlink.com 1.10,2013-02-01 05:46:00,
2013-02-01 01:01:00,25.5,11.0,29.67,WNW,290,10.0,-999.0,54,-99.99,,,0.00,weatherlink.com 1.10,2013-02-01 06:01:00,
2013-02-01 01:16:00,25.4,10.0,29.68,WNW,290,6.0,-999.0,53,-99.99,,,0.00,weatherlink.com 1.10,2013-02-01 06:16:00,
2013-02-01 01:32:00,25.3,10.0,29.69,WSW,252,5.0,-999.0,52,-99.99,,,0.00,weatherlink.com 1.10,2013-02-01 06:32:00,
2013-02-01 01:47:00,25.0,10.0,29.70,South,190,11.0,-999.0,53,-99.99,,,0.00,weatherlink.com 1.10,2013-02-01 06:47:00,
2013-02-01 02:02:00,24.9,9.0,29.70,West,280,15.0,-999.0,52,-99.99,,,0.00,weatherlink.com 1.10,2013-02-01 07:02:00,
2013-02-01 02:17:00,24.7,9.0,29.70,West,274,10.0,-999.0,52,-99.99,,,0.00,weatherlink.com 1.10,2013-02-01 07:17:00,
2013-02-01 02:32:00,24.7,9.0,29.70,SSW,211,6.0,-999.0,52,-99.99,,,0.00,weatherlink.com 1.10,2013-02-01 07:32:00,
2013-02-01 02:47:00,24.5,9.0,29.70,SW,219,3.0,-999.0,53,-99.99,,,0.00,weatherlink.com 1.10,2013-02-01 07:47:00,
2013-02-01 03:02:00,24.4,10.0,29.70,SSW,210,10.0,-999.0,54,-99.99,,,0.00,weatherlink.com 1.10,2013-02-01 08:02:00,
2013-02-01 03:17:00,24.4,10.0,29.71,SW,225,6.0,-999.0,54,-99.99,,,0.00,weatherlink.com 1.10,2013-02-01 08:17:00,
2013-02-01 03:32:00,24.3,11.0,29.72,WNW,292,6.0,-999.0,56,-99.99,,,0.00,weatherlink.com 1.10,2013-02-01 08:32:00,
2013-02-01 03:47:00,24.3,11.0,29.72,WSW,249,5.0,-999.0,57,-99.99,,,0.00,weatherlink.com 1.10,2013-02-01 08:47:00,
2013-02-01 04:02:00,24.1,12.0,29.71,WNW,284,7.0,-999.0,59,-99.99,,,0.00,weatherlink.com 1.10,2013-02-01 09:02:00,
2013-02-01 04:17:00,24.1,12.0,29.72,SW,216,4.0,-999.0,59,-99.99,,,0.00,weatherlink.com 1.10,2013-02-01 09:17:00,
2013-02-01 04:32:00,24.0,12.0,29.71,SSW,192,6.0,-999.0,60,-99.99,,,0.00,weatherlink.com 1.10,2013-02-01 09:32:00,
2013-02-01 04:47:00,23.7,12.0,29.71,West,271,6.0,-999.0,61,-99.99,,,0.00,weatherlink.com 1.10,2013-02-01 09:47:00,
2013-02-01 05:02:00,23.6,12.0,29.72,WSW,239,7.0,-999.0,62,-99.99,,,0.00,weatherlink.com 1.10,2013-02-01 10:02:00,
2013-02-01 05:17:00,23.3,12.0,29.72,WSW,250,8.0,-999.0,63,-99.99,,,0.00,weatherlink.com 1.10,2013-02-01 10:17:00,
2013-02-01 05:32:00,23.3,13.0,29.73,West,262,2.0,-999.0,64,-99.99,,,0.00,weatherlink.com 1.10,2013-02-01 10:32:00,
2013-02-01 05:47:00,23.1,13.0,29.74,SSW,208,2.0,-999.0,65,-99.99,,,0.00,weatherlink.com 1.10,2013-02-01 10:47:00,
2013-02-01 06:02:00,23.0,13.0,29.74,SSW,203,4.0,-999.0,65,-99.99,,,0.00,weatherlink.com 1.10,2013-02-01 11:02:00,
2013-02-01 06:17:00,22.9,13.0,29.75,SW,223,4.0,-999.0,66,-99.99,,,0.00,weatherlink.com 1.10,2013-02-01 11:17:00,
2013-02-01 06:32:00,22.8,13.0,29.76,SW,225,3.0,-999.0,67,-99.99,,,0.00,weatherlink.com 1.10,2013-02-01 11:32:00,
2013-02-01 06:47:00,22.8,13.0,29.77,SSW,200,14.0,-999.0,67,-99.99,,,0.00,weatherlink.com 1.10,2013-02-01 11:47:00,
2013-02-01 07:02:00,22.8,13.0,29.77,WSW,243,3.0,-999.0,67,-99.99,,,0.00,weatherlink.com 1.10,2013-02-01 12:02:00,
2013-02-01 07:17:00,22.8,13.0,29.79,SSW,195,3.0,-999.0,66,-99.99,,,0.00,weatherlink.com 1.10,2013-02-01 12:17:00,
2013-02-01 07:32:00,23.1,13.0,29.80,SW,234,5.0,-999.0,66,-99.99,,,0.00,weatherlink.com 1.10,2013-02-01 12:32:00,
2013-02-01 07:47:00,23.5,14.0,29.80,SW,232,4.0,-999.0,66,-99.99,,,0.00,weatherlink.com 1.10,2013-02-01 12:47:00,
2013-02-01 08:04:00,23.8,14.0,29.81,SW,219,4.0,-999.0,65,-99.99,,,0.00,weatherlink.com 1.10,2013-02-01 13:04:00,
2013-02-01 08:18:00,24.2,14.0,29.82,WNW,287,6.0,-999.0,65,-99.99,,,0.00,weatherlink.com 1.10,2013-02-01 13:18:00,
2013-02-01 08:33:00,24.6,14.0,29.82,NW,326,5.0,-999.0,63,-99.99,,,0.00,weatherlink.com 1.10,2013-02-01 13:33:00,
2013-02-01 08:48:00,24.9,13.0,29.82,WSW,257,6.0,-999.0,61,-99.99,,,0.00,weatherlink.com 1.10,2013-02-01 13:48:00,
2013-02-01 09:03:00,25.2,13.0,29.81,WSW,250,5.0,-999.0,60,-99.99,,,0.00,weatherlink.com 1.10,2013-02-01 14:03:00,
2013-02-01 09:18:00,24.9,12.0,29.81,WSW,242,4.0,-999.0,59,-99.99,,,0.00,weatherlink.com 1.10,2013-02-01 14:18:00,
2013-02-01 09:33:00,25.7,13.0,29.81,West,262,8.0,-999.0,59,-99.99,,,0.00,weatherlink.com 1.10,2013-02-01 14:33:00,
2013-02-01 09:48:00,25.7,13.0,29.81,SW,215,10.0,-999.0,58,-99.99,,,0.00,weatherlink.com 1.10,2013-02-01 14:48:00,
2013-02-01 10:03:00,25.4,13.0,29.82,West,275,11.0,-999.0,59,-99.99,,,0.00,weatherlink.com 1.10,2013-02-01 15:03:00,
2013-02-01 10:18:00,25.3,12.0,29.83,West,276,4.0,-999.0,58,-99.99,,,0.00,weatherlink.com 1.10,2013-02-01 15:18:00,
2013-02-01 10:33:00,25.3,12.0,29.83,NW,306,10.0,-999.0,57,-99.99,,,0.00,weatherlink.com 1.10,2013-02-01 15:33:00,
2013-02-01 10:48:00,25.4,12.0,29.83,WSW,238,4.0,-999.0,57,-99.99,,,0.00,weatherlink.com 1.10,2013-02-01 15:48:00,
2013-02-01 11:03:00,25.4,12.0,29.83,NW,321,4.0,-999.0,58,-99.99,,,0.00,weatherlink.com 1.10,2013-02-01 16:03:00,
2013-02-01 11:18:00,25.4,12.0,29.83,West,274,4.0,-999.0,56,-99.99,,,0.00,weatherlink.com 1.10,2013-02-01 16:18:00,
2013-02-01 11:33:00,25.8,10.0,29.83,West,273,11.0,-999.0,52,-99.99,,,0.00,weatherlink.com 1.10,2013-02-01 16:33:00,
2013-02-01 11:48:00,25.6,10.0,29.82,WSW,257,3.0,-999.0,52,-99.99,,,0.00,weatherlink.com 1.10,2013-02-01 16:48:00,
2013-02-01 12:03:00,26.0,10.0,29.81,WSW,242,9.0,-999.0,52,-99.99,,,0.00,weatherlink.com 1.10,2013-02-01 17:03:00,
2013-02-01 12:18:00,25.8,11.0,29.80,South,189,0.0,-999.0,54,-99.99,,,0.00,weatherlink.com 1.10,2013-02-01 17:18:00,
2013-02-01 12:33:00,25.9,10.0,29.80,WNW,292,5.0,-999.0,51,-99.99,,,0.00,weatherlink.com 1.10,2013-02-01 17:33:00,
2013-02-01 12:48:00,26.4,8.0,29.80,West,273,7.0,-999.0,46,-99.99,,,0.00,weatherlink.com 1.10,2013-02-01 17:48:00,
2013-02-01 13:03:00,25.6,10.0,29.81,NNW,346,14.0,-999.0,51,-99.99,,,0.00,weatherlink.com 1.10,2013-02-01 18:03:00,
2013-02-01 13:18:00,25.9,9.0,29.82,WSW,252,7.0,-999.0,48,-99.99,,,0.00,weatherlink.com 1.10,2013-02-01 18:18:00,
2013-02-01 13:48:00,26.8,7.0,29.83,NNW,328,9.0,-999.0,44,-99.99,,,0.00,weatherlink.com 1.10,2013-02-01 18:48:00,
2013-02-01 14:03:00,27.5,8.0,29.83,NNW,333,10.0,-999.0,43,-99.99,,,0.00,weatherlink.com 1.10,2013-02-01 19:03:00,
2013-02-01 14:18:00,26.0,8.0,29.84,NNW,327,12.0,-999.0,46,-99.99,,,0.00,weatherlink.com 1.10,2013-02-01 19:18:00,
2013-02-01 14:33:00,26.0,7.0,29.85,WNW,286,15.0,-999.0,44,-99.99,,,0.00,weatherlink.com 1.10,2013-02-01 19:33:00,
2013-02-01 14:48:00,25.8,8.0,29.85,NW,320,7.0,-999.0,46,-99.99,,,0.00,weatherlink.com 1.10,2013-02-01 19:48:00,
2013-02-01 15:03:00,26.0,7.0,29.87,West,281,2.0,-999.0,45,-99.99,,,0.00,weatherlink.com 1.10,2013-02-01 20:03:00,
2013-02-01 15:18:00,25.6,7.0,29.88,West,281,8.0,-999.0,45,-99.99,,,0.00,weatherlink.com 1.10,2013-02-01 20:18:00,
2013-02-01 15:33:00,25.5,12.0,29.89,West,277,8.0,-999.0,57,-99.99,,,0.00,weatherlink.com 1.10,2013-02-01 20:33:00,
2013-02-01 15:48:00,25.5,10.0,29.90,NW,319,6.0,-999.0,52,-99.99,,,0.00,weatherlink.com 1.10,2013-02-01 20:48:00,
2013-02-01 16:03:00,25.2,11.0,29.91,North,349,5.0,-999.0,55,-99.99,,,0.00,weatherlink.com 1.10,2013-02-01 21:03:00,
2013-02-01 16:19:00,23.7,12.0,29.93,West,268,10.0,-999.0,62,-99.99,,,0.00,weatherlink.com 1.10,2013-02-01 21:19:00,
2013-02-01 16:34:00,23.1,12.0,29.93,WSW,244,13.0,-999.0,63,-99.99,,,0.00,weatherlink.com 1.10,2013-02-01 21:34:00,
2013-02-01 16:48:00,23.2,11.0,29.95,NNW,346,11.0,-999.0,59,-99.99,,,0.00,weatherlink.com 1.10,2013-02-01 21:48:00,
2013-02-01 17:03:00,23.3,10.0,29.96,WNW,295,15.0,-999.0,57,-99.99,,,0.00,weatherlink.com 1.10,2013-02-01 22:03:00,
2013-02-01 17:18:00,23.4,8.0,29.97,West,272,1.0,-999.0,53,-99.99,,,0.00,weatherlink.com 1.10,2013-02-01 22:18:00,
2013-02-01 17:33:00,23.1,7.0,29.99,NW,316,5.0,-999.0,51,-99.99,,,0.00,weatherlink.com 1.10,2013-02-01 22:33:00,
2013-02-01 17:49:00,22.9,7.0,30.00,NW,304,5.0,-999.0,50,-99.99,,,0.00,weatherlink.com 1.10,2013-02-01 22:49:00,
2013-02-01 18:04:00,22.3,7.0,30.02,WNW,298,8.0,-999.0,53,-99.99,,,0.00,weatherlink.com 1.10,2013-02-01 23:04:00,
2013-02-01 18:19:00,21.9,8.0,30.02,WNW,293,7.0,-999.0,55,-99.99,,,0.00,weatherlink.com 1.10,2013-02-01 23:19:00,
2013-02-01 18:34:00,21.6,5.0,30.04,WNW,293,6.0,-999.0,50,-99.99,,,0.00,weatherlink.com 1.10,2013-02-01 23:34:00,
2013-02-01 18:49:00,21.3,5.0,30.05,North,355,8.0,-999.0,50,-99.99,,,0.00,weatherlink.com 1.10,2013-02-01 23:49:00,
2013-02-01 19:04:00,21.1,5.0,30.05,SW,231,2.0,-999.0,51,-99.99,,,0.00,weatherlink.com 1.10,2013-02-02 00:04:00,
2013-02-01 19:19:00,20.7,6.0,30.06,WNW,284,2.0,-999.0,52,-99.99,,,0.00,weatherlink.com 1.10,2013-02-02 00:19:00,
2013-02-01 19:34:00,20.7,6.0,30.07,WNW,294,6.0,-999.0,53,-99.99,,,0.00,weatherlink.com 1.10,2013-02-02 00:34:00,
2013-02-01 19:49:00,20.4,6.0,30.07,WSW,246,3.0,-999.0,53,-99.99,,,0.00,weatherlink.com 1.10,2013-02-02 00:49:00,
2013-02-01 20:04:00,20.3,6.0,30.08,WNW,300,3.0,-999.0,53,-99.99,,,0.00,weatherlink.com 1.10,2013-02-02 01:04:00,
2013-02-01 20:19:00,20.1,6.0,30.09,WNW,297,6.0,-999.0,54,-99.99,,,0.00,weatherlink.com 1.10,2013-02-02 01:19:00,
2013-02-01 20:34:00,19.9,6.0,30.09,NNW,327,7.0,-999.0,55,-99.99,,,0.00,weatherlink.com 1.10,2013-02-02 01:34:00,
2013-02-01 20:49:00,19.8,6.0,30.10,NW,307,8.0,-999.0,56,-99.99,,,0.00,weatherlink.com 1.10,2013-02-02 01:49:00,
2013-02-01 21:04:00,19.7,7.0,30.10,West,273,2.0,-999.0,57,-99.99,,,0.00,weatherlink.com 1.10,2013-02-02 02:04:00,
2013-02-01 21:19:00,19.3,7.0,30.11,WNW,293,4.0,-999.0,58,-99.99,,,0.00,weatherlink.com 1.10,2013-02-02 02:19:00,
2013-02-01 21:34:00,19.3,7.0,30.12,WSW,243,5.0,-999.0,60,-99.99,,,0.00,weatherlink.com 1.10,2013-02-02 02:34:00,
2013-02-01 21:49:00,19.3,8.0,30.12,West,263,4.0,-999.0,61,-99.99,,,0.00,weatherlink.com 1.10,2013-02-02 02:49:00,
2013-02-01 22:04:00,19.2,8.0,30.12,West,261,4.0,-999.0,62,-99.99,,,0.00,weatherlink.com 1.10,2013-02-02 03:04:00,
2013-02-01 22:20:00,18.9,8.0,30.13,WSW,244,2.0,-999.0,62,-99.99,,,0.00,weatherlink.com 1.10,2013-02-02 03:20:00,
2013-02-01 22:34:00,18.8,7.0,30.13,West,262,2.0,-999.0,61,-99.99,,,0.00,weatherlink.com 1.10,2013-02-02 03:34:00,
2013-02-01 22:49:00,19.3,6.0,30.14,West,269,3.0,-999.0,57,-99.99,,,0.00,weatherlink.com 1.10,2013-02-02 03:49:00,
2013-02-01 23:05:00,19.4,6.0,30.14,NW,313,5.0,-999.0,55,-99.99,,,0.00,weatherlink.com 1.10,2013-02-02 04:05:00,
2013-02-01 23:19:00,19.4,5.0,30.14,WNW,285,5.0,-999.0,54,-99.99,,,0.00,weatherlink.com 1.10,2013-02-02 04:19:00,
2013-02-01 23:35:00,19.4,5.0,30.15,WNW,286,3.0,-999.0,54,-99.99,,,0.00,weatherlink.com 1.10,2013-02-02 04:35:00,
2013-02-01 23:49:00,19.1,6.0,30.15,SW,236,3.0,-999.0,56,-99.99,,,0.00,weatherlink.com 1.10,2013-02-02 04:49:00,